Lost Springs, WY (82224)

2:46 AM MDT on August 28, 2016 (GMT -0600)
Converse County Flyers | | Change Station

Elev 4839 ft 42.74 °N, 105.37 °W | Updated 3 minutes ago

Clear
Clear
50.0 °F
Feels Like 50.0 °F
N
2.2
Wind Variable Wind from East
Gusts 3.1 mph

Today
High -- | Low -- °F
--% Chance of Precip.
Yesterday
High -- | Low -- °F
Precip. -- in
Pressure 29.90 in
Visibility 10.0 miles
Clouds Clear
Dew Point 42 °F
Humidity 65%
Rainfall 0.00 in
Snow Depth Not available.
6:20 AM 7:39 PM
Waning Crescent, 17% visible
METAR KDGW 280753Z AUTO 10006KT 10SM CLR 09/01 A3005 RMK AO2 SLP125 T00940006
Pressure 29.90 in
Visibility 10.0 miles
Clouds Clear
Dew Point 42 °F
Humidity 65%
Rainfall 0.00 in
Snow Depth Not available.
6:20 AM 7:39 PM
Waning Crescent, 17% visible
METAR KDGW 280753Z AUTO 10006KT 10SM CLR 09/01 A3005 RMK AO2 SLP125 T00940006

10-Day Weather Forecast

Almanac

Astronomy

Aug. 28, 2016 Rise Set
Actual Time
Civil Twilight
Nautical Twilight
Astronomical Twilight
Moon
Length of Visible Light
Length of Day
Tomorrow will be .
, % of the Moon is Illuminated

Today's Extremes

State Highs State Lows

Community

WunderPhotos

Upload Photos

1,935,540 photos uploaded!

WunderBlog® & News

Nearby

Air Quality

  Air Quality AQ Index Pollutant
Not available.

Snow Depth

Station Depth Elevation

Earthquake Activity

City Distance Mag. Time & Date
Minimum magnitude displayed is 2.5.

Coastal Water Temperatures

Place Temperature

Stations

Nearby Weather Stations

Station Location Temp. Windchill Dew Point Humidity Wind Precip. Elev Updated Type
                   

Watches & Warnings

There are currently no watches in effect.